sensor_id;sensor_type;location;lat;lon;timestamp;P1;P2;P0
74434;PMS7003;62867;52.038;29.256;2022-08-19T00:03:15;15.6;13.6;9
74434;PMS7003;62867;52.038;29.256;2022-08-19T00:08:33;15.6;13.2;8.6
74434;PMS7003;62867;52.038;29.256;2022-08-19T00:13:35;16.8;14;8.8
74434;PMS7003;62867;52.038;29.256;2022-08-19T00:18:27;16.2;14.2;9
74434;PMS7003;62867;52.038;29.256;2022-08-19T00:23:19;17.6;14.6;9
74434;PMS7003;62867;52.038;29.256;2022-08-19T00:28:35;18.5;14.8;9.3
74434;PMS7003;62867;52.038;29.256;2022-08-19T00:33:33;16.4;14.4;9.8
74434;PMS7003;62867;52.038;29.256;2022-08-19T00:38:36;17.6;14.4;9.2
74434;PMS7003;62867;52.038;29.256;2022-08-19T00:43:07;15.8;14.2;9
74434;PMS7003;62867;52.038;29.256;2022-08-19T00:48:13;18.4;15.4;9.4
74434;PMS7003;62867;52.038;29.256;2022-08-19T00:53:05;16.4;14.4;8.8
74434;PMS7003;62867;52.038;29.256;2022-08-19T00:58:22;16.4;13.8;9
74434;PMS7003;62867;52.038;29.256;2022-08-19T01:03:16;17;13.8;9.4
74434;PMS7003;62867;52.038;29.256;2022-08-19T01:08:07;18.4;15;10.2
74434;PMS7003;62867;52.038;29.256;2022-08-19T01:13:17;17.6;15;9.6
74434;PMS7003;62867;52.038;29.256;2022-08-19T01:18:35;18.8;15.4;10.2
74434;PMS7003;62867;52.038;29.256;2022-08-19T01:23:21;17.2;15;9.8
74434;PMS7003;62867;52.038;29.256;2022-08-19T01:28:33;19;15.5;10
74434;PMS7003;62867;52.038;29.256;2022-08-19T01:33:27;17.4;14.8;10
74434;PMS7003;62867;52.038;29.256;2022-08-19T01:38:08;18.6;15;9.8
74434;PMS7003;62867;52.038;29.256;2022-08-19T01:43:13;20;17;10.8
74434;PMS7003;62867;52.038;29.256;2022-08-19T01:48:27;19.6;16.2;10.8
74434;PMS7003;62867;52.038;29.256;2022-08-19T01:53:37;21.4;16.6;11
74434;PMS7003;62867;52.038;29.256;2022-08-19T01:58:24;21.2;17.2;11
74434;PMS7003;62867;52.038;29.256;2022-08-19T02:03:23;21.2;17.4;11.2
74434;PMS7003;62867;52.038;29.256;2022-08-19T02:08:23;20.2;16.4;10.6
74434;PMS7003;62867;52.038;29.256;2022-08-19T02:13:15;19.2;17.4;11.2
74434;PMS7003;62867;52.038;29.256;2022-08-19T02:18:17;22.6;19.6;12.8
74434;PMS7003;62867;52.038;29.256;2022-08-19T02:23:37;20.6;18.2;11.8
74434;PMS7003;62867;52.038;29.256;2022-08-19T02:27:55;22;18.5;12.5
74434;PMS7003;62867;52.038;29.256;2022-08-19T02:32:55;22.6;20;12.8
74434;PMS7003;62867;52.038;29.256;2022-08-19T02:37:55;21.4;19;12.8
74434;PMS7003;62867;52.038;29.256;2022-08-19T02:43:35;22.6;19.8;13.6
74434;PMS7003;62867;52.038;29.256;2022-08-19T02:48:25;24.6;20.6;13
74434;PMS7003;62867;52.038;29.256;2022-08-19T02:53:17;24.2;21.2;14
74434;PMS7003;62867;52.038;29.256;2022-08-19T02:58:19;22.8;19.8;13.2
74434;PMS7003;62867;52.038;29.256;2022-08-19T03:03:35;26.8;22.2;13.8
74434;PMS7003;62867;52.038;29.256;2022-08-19T03:08:35;28.2;23.6;14.4
74434;PMS7003;62867;52.038;29.256;2022-08-19T03:13:07;26.8;22.4;14
74434;PMS7003;62867;52.038;29.256;2022-08-19T03:18:07;29.2;23.6;15.2
74434;PMS7003;62867;52.038;29.256;2022-08-19T03:22:55;26.4;23.4;14.8
74434;PMS7003;62867;52.038;29.256;2022-08-19T03:28:21;26.8;23;14.8
74434;PMS7003;62867;52.038;29.256;2022-08-19T03:33:13;28.6;24.2;14.2
74434;PMS7003;62867;52.038;29.256;2022-08-19T03:38:13;26;21.6;14.2
74434;PMS7003;62867;52.038;29.256;2022-08-19T03:43:27;25.6;22.2;14.8
74434;PMS7003;62867;52.038;29.256;2022-08-19T03:48:35;29.2;25.2;15.2
74434;PMS7003;62867;52.038;29.256;2022-08-19T03:53:23;27.6;22.8;14.2
74434;PMS7003;62867;52.038;29.256;2022-08-19T03:58:37;28;25.4;16
74434;PMS7003;62867;52.038;29.256;2022-08-19T04:03:35;27;23.6;16
74434;PMS7003;62867;52.038;29.256;2022-08-19T04:08:35;29.8;25.4;15.8
74434;PMS7003;62867;52.038;29.256;2022-08-19T04:12:55;29.6;24.2;15
74434;PMS7003;62867;52.038;29.256;2022-08-19T04:18:27;26.6;22.6;15.2
74434;PMS7003;62867;52.038;29.256;2022-08-19T04:23:37;27.4;23;16.2
74434;PMS7003;62867;52.038;29.256;2022-08-19T04:28:21;30.8;25.6;15.8
74434;PMS7003;62867;52.038;29.256;2022-08-19T04:33:31;29.8;25;17.5
74434;PMS7003;62867;52.038;29.256;2022-08-19T04:38:25;32;25.4;15.2
74434;PMS7003;62867;52.038;29.256;2022-08-19T04:43:25;32.8;28.4;19
74434;PMS7003;62867;52.038;29.256;2022-08-19T04:47:55;37;29.8;18.4
74434;PMS7003;62867;52.038;29.256;2022-08-19T04:53:21;29.6;26.4;17.4
74434;PMS7003;62867;52.038;29.256;2022-08-19T04:57:55;31;26.8;17
74434;PMS7003;62867;52.038;29.256;2022-08-19T05:02:55;33.2;29.4;19
74434;PMS7003;62867;52.038;29.256;2022-08-19T05:08:07;34.2;28;17.8
74434;PMS7003;62867;52.038;29.256;2022-08-19T05:13:37;34.4;27.6;18.6
74434;PMS7003;62867;52.038;29.256;2022-08-19T05:18:37;30.2;26.4;17.4
74434;PMS7003;62867;52.038;29.256;2022-08-19T05:23:19;32.6;27.8;17.8
74434;PMS7003;62867;52.038;29.256;2022-08-19T05:27:55;33.2;27.4;18
74434;PMS7003;62867;52.038;29.256;2022-08-19T05:33:35;36.5;28.8;18.3
74434;PMS7003;62867;52.038;29.256;2022-08-19T05:38:37;31.4;28.8;18
74434;PMS7003;62867;52.038;29.256;2022-08-19T05:42:55;35.8;28;18.4
74434;PMS7003;62867;52.038;29.256;2022-08-19T05:48:07;32.8;28.4;18
74434;PMS7003;62867;52.038;29.256;2022-08-19T05:53:09;32.2;28.2;18
74434;PMS7003;62867;52.038;29.256;2022-08-19T05:57:55;31.8;27.8;18.8
74434;PMS7003;62867;52.038;29.256;2022-08-19T06:03:11;32.8;28.2;18
74434;PMS7003;62867;52.038;29.256;2022-08-19T06:08:07;29.4;26.2;17
74434;PMS7003;62867;52.038;29.256;2022-08-19T06:13:27;29.8;26;17.4
74434;PMS7003;62867;52.038;29.256;2022-08-19T06:18:05;34.2;26.2;17.2
74434;PMS7003;62867;52.038;29.256;2022-08-19T06:23:19;32.4;26.4;16.2
74434;PMS7003;62867;52.038;29.256;2022-08-19T06:28:33;30.6;25.2;17
74434;PMS7003;62867;52.038;29.256;2022-08-19T06:33:23;31.5;26.8;17.5
74434;PMS7003;62867;52.038;29.256;2022-08-19T06:38:07;29.6;24.8;17.2
74434;PMS7003;62867;52.038;29.256;2022-08-19T06:43:07;29.8;25.8;15.8
74434;PMS7003;62867;52.038;29.256;2022-08-19T06:48:19;30;26;16.8
74434;PMS7003;62867;52.038;29.256;2022-08-19T06:53:34;28.2;24.6;15.4
74434;PMS7003;62867;52.038;29.256;2022-08-19T06:58:21;28.6;23.8;16
74434;PMS7003;62867;52.038;29.256;2022-08-19T07:03:33;27.4;22.6;15
74434;PMS7003;62867;52.038;29.256;2022-08-19T07:08:25;28;24.6;16.2
74434;PMS7003;62867;52.038;29.256;2022-08-19T07:13:25;27.4;22.6;14.2
74434;PMS7003;62867;52.038;29.256;2022-08-19T07:18:13;24.8;19.4;12.8
74434;PMS7003;62867;52.038;29.256;2022-08-19T07:23:21;27.6;23.4;15.6
74434;PMS7003;62867;52.038;29.256;2022-08-19T07:27:55;26.8;23.4;14.4
74434;PMS7003;62867;52.038;29.256;2022-08-19T07:33:05;26.3;20.5;14
74434;PMS7003;62867;52.038;29.256;2022-08-19T07:38:07;26.2;21.4;14.6
74434;PMS7003;62867;52.038;29.256;2022-08-19T07:43:33;27.2;22.6;15.4
74434;PMS7003;62867;52.038;29.256;2022-08-19T07:48:31;27;22;14.6
74434;PMS7003;62867;52.038;29.256;2022-08-19T07:52:55;23.6;21.6;13.4
74434;PMS7003;62867;52.038;29.256;2022-08-19T07:58:05;23.4;21.2;13.4
74434;PMS7003;62867;52.038;29.256;2022-08-19T08:03:33;23.4;19;12.8
74434;PMS7003;62867;52.038;29.256;2022-08-19T08:08:35;25.4;20.8;12.8
74434;PMS7003;62867;52.038;29.256;2022-08-19T08:13:15;24.2;19.8;13.2
74434;PMS7003;62867;52.038;29.256;2022-08-19T08:18:07;21.6;18.6;12.4
74434;PMS7003;62867;52.038;29.256;2022-08-19T08:23:25;21.6;19;12.2
74434;PMS7003;62867;52.038;29.256;2022-08-19T08:27:55;21;17.6;11.6
74434;PMS7003;62867;52.038;29.256;2022-08-19T08:33:20;22;17.8;11
74434;PMS7003;62867;52.038;29.256;2022-08-19T08:38:15;19.8;16.8;11
74434;PMS7003;62867;52.038;29.256;2022-08-19T08:43:29;20.4;16.8;10.8
74434;PMS7003;62867;52.038;29.256;2022-08-19T08:48:30;16.4;14;9.6
74434;PMS7003;62867;52.038;29.256;2022-08-19T08:53:21;17;15.6;10.6
74434;PMS7003;62867;52.038;29.256;2022-08-19T08:58:36;17.4;15.4;10.2
74434;PMS7003;62867;52.038;29.256;2022-08-19T09:03:24;21.4;18;11.2
74434;PMS7003;62867;52.038;29.256;2022-08-19T09:08:08;28.4;24.6;17.4
74434;PMS7003;62867;52.038;29.256;2022-08-19T09:13:02;22.8;21;15
74434;PMS7003;62867;52.038;29.256;2022-08-19T09:17:58;24.2;22;14.8
74434;PMS7003;62867;52.038;29.256;2022-08-19T09:23:21;19;16.6;11.8
74434;PMS7003;62867;52.038;29.256;2022-08-19T09:28:19;22;18.8;11.8
74434;PMS7003;62867;52.038;29.256;2022-08-19T09:33:31;23.4;20.2;13.6
74434;PMS7003;62867;52.038;29.256;2022-08-19T09:38:25;26.5;21.5;14.5
74434;PMS7003;62867;52.038;29.256;2022-08-19T09:43:26;19.4;17.8;12.2
74434;PMS7003;62867;52.038;29.256;2022-08-19T09:48:07;20.6;16.8;11.6
74434;PMS7003;62867;52.038;29.256;2022-08-19T09:53:21;18.8;14.8;9.6
74434;PMS7003;62867;52.038;29.256;2022-08-19T09:57:55;25.2;22.2;14.8
74434;PMS7003;62867;52.038;29.256;2022-08-19T10:03:07;22;19.2;13.4
74434;PMS7003;62867;52.038;29.256;2022-08-19T10:07:55;22.6;19.2;12.4
74434;PMS7003;62867;52.038;29.256;2022-08-19T10:13:28;18.4;16.2;10.4
74434;PMS7003;62867;52.038;29.256;2022-08-19T10:18:33;19.6;17;11
74434;PMS7003;62867;52.038;29.256;2022-08-19T10:23:07;21.6;16.6;10.4
74434;PMS7003;62867;52.038;29.256;2022-08-19T10:28:19;18;15.6;10.2
74434;PMS7003;62867;52.038;29.256;2022-08-19T10:33:31;19.2;16;10.4
74434;PMS7003;62867;52.038;29.256;2022-08-19T10:38:35;16.8;13.8;9.3
74434;PMS7003;62867;52.038;29.256;2022-08-19T10:43:01;17.2;15;10.8
74434;PMS7003;62867;52.038;29.256;2022-08-19T10:47:55;14.2;13.2;8.4
74434;PMS7003;62867;52.038;29.256;2022-08-19T10:53:09;17.6;15;10
74434;PMS7003;62867;52.038;29.256;2022-08-19T10:57:55;18.6;15.6;10.6
74434;PMS7003;62867;52.038;29.256;2022-08-19T11:02:55;17.4;14.8;9.8
74434;PMS7003;62867;52.038;29.256;2022-08-19T11:08:01;18.8;17;11
74434;PMS7003;62867;52.038;29.256;2022-08-19T11:13:25;17;15;10.4
74434;PMS7003;62867;52.038;29.256;2022-08-19T11:18:27;15.8;14;9.2
74434;PMS7003;62867;52.038;29.256;2022-08-19T11:23:19;13.8;12.4;8.6
74434;PMS7003;62867;52.038;29.256;2022-08-19T11:28:37;14.6;13;8.8
74434;PMS7003;62867;52.038;29.256;2022-08-19T11:33:25;15.8;13.8;8.8
74434;PMS7003;62867;52.038;29.256;2022-08-19T11:38:11;15;12.8;8.5
74434;PMS7003;62867;52.038;29.256;2022-08-19T11:43:07;15.4;13.2;8.6
74434;PMS7003;62867;52.038;29.256;2022-08-19T11:47:55;14.6;12;8.8
74434;PMS7003;62867;52.038;29.256;2022-08-19T11:53:31;15;13;9
74434;PMS7003;62867;52.038;29.256;2022-08-19T11:58:17;14.2;12;8.2
74434;PMS7003;62867;52.038;29.256;2022-08-19T12:03:35;13.6;12.2;8.6
74434;PMS7003;62867;52.038;29.256;2022-08-19T12:08:25;12.4;11.4;7.8
74434;PMS7003;62867;52.038;29.256;2022-08-19T12:13:25;13.2;12;7.8
74434;PMS7003;62867;52.038;29.256;2022-08-19T12:17:55;14.2;12.8;8.4
74434;PMS7003;62867;52.038;29.256;2022-08-19T12:23:21;12.2;10.6;7.6
74434;PMS7003;62867;52.038;29.256;2022-08-19T12:28:05;12.2;10;7
74434;PMS7003;62867;52.038;29.256;2022-08-19T12:32:55;13.6;11.2;7.6
74434;PMS7003;62867;52.038;29.256;2022-08-19T12:38:01;11.8;9.8;6.3
74434;PMS7003;62867;52.038;29.256;2022-08-19T12:43:35;12.8;10.2;6.8
74434;PMS7003;62867;52.038;29.256;2022-08-19T12:48:33;9.8;7.8;5.4
74434;PMS7003;62867;52.038;29.256;2022-08-19T12:53:25;10.4;9;5.6
74434;PMS7003;62867;52.038;29.256;2022-08-19T12:57:55;9;7.4;5.4
74434;PMS7003;62867;52.038;29.256;2022-08-19T13:03:19;9.6;7.2;4.8
74434;PMS7003;62867;52.038;29.256;2022-08-19T13:08:33;10.6;8.2;6
74434;PMS7003;62867;52.038;29.256;2022-08-19T13:13:33;9.2;7.6;5
74434;PMS7003;62867;52.038;29.256;2022-08-19T13:18:15;7.8;7.2;5.2
74434;PMS7003;62867;52.038;29.256;2022-08-19T13:22:55;7.6;7;4.4
74434;PMS7003;62867;52.038;29.256;2022-08-19T13:27:55;7.6;6.6;4.6
74434;PMS7003;62867;52.038;29.256;2022-08-19T13:33:19;8;6.2;4.2
74434;PMS7003;62867;52.038;29.256;2022-08-19T13:38:01;6.3;6;4
74434;PMS7003;62867;52.038;29.256;2022-08-19T13:42:55;7.8;6.6;4.2
74434;PMS7003;62867;52.038;29.256;2022-08-19T13:48:25;7.2;6.2;3.8
74434;PMS7003;62867;52.038;29.256;2022-08-19T13:53:33;8.2;7.4;4.6
74434;PMS7003;62867;52.038;29.256;2022-08-19T13:58:21;8.8;7.4;4.6
74434;PMS7003;62867;52.038;29.256;2022-08-19T14:03:33;8.8;7.2;4.8
74434;PMS7003;62867;52.038;29.256;2022-08-19T14:08:33;7.8;7.2;4.6
74434;PMS7003;62867;52.038;29.256;2022-08-19T14:13:02;8.8;7.6;4.2
74434;PMS7003;62867;52.038;29.256;2022-08-19T14:18:09;8.2;7.6;5
74434;PMS7003;62867;52.038;29.256;2022-08-19T14:23:15;10.4;8.6;5.8
74434;PMS7003;62867;52.038;29.256;2022-08-19T14:28:33;8.8;7.2;5.2
74434;PMS7003;62867;52.038;29.256;2022-08-19T14:33:17;10.4;8.8;5.4
74434;PMS7003;62867;52.038;29.256;2022-08-19T14:38:25;10.8;8.6;5.6
74434;PMS7003;62867;52.038;29.256;2022-08-19T14:43:25;9;7.3;5
74434;PMS7003;62867;52.038;29.256;2022-08-19T14:48:15;8.8;7.6;5.4
74434;PMS7003;62867;52.038;29.256;2022-08-19T14:53:15;8.8;7.8;4.8
74434;PMS7003;62867;52.038;29.256;2022-08-19T14:58:21;10.4;7.6;5
74434;PMS7003;62867;52.038;29.256;2022-08-19T15:03:19;8.2;6.6;4.6
74434;PMS7003;62867;52.038;29.256;2022-08-19T15:08:07;7.8;6;3.6
74434;PMS7003;62867;52.038;29.256;2022-08-19T15:13:13;9;7.8;5
74434;PMS7003;62867;52.038;29.256;2022-08-19T15:18:35;8.4;7.2;4
74434;PMS7003;62867;52.038;29.256;2022-08-19T15:23:27;11.6;9;5
74434;PMS7003;62867;52.038;29.256;2022-08-19T15:28:19;8.8;6.8;4.2
74434;PMS7003;62867;52.038;29.256;2022-08-19T15:33:23;8.2;6.6;4.6
74434;PMS7003;62867;52.038;29.256;2022-08-19T15:38:35;7.2;5.8;4.4
74434;PMS7003;62867;52.038;29.256;2022-08-19T15:43:33;7;5.8;3.8
74434;PMS7003;62867;52.038;29.256;2022-08-19T15:48:13;8.6;5.2;3.4
74434;PMS7003;62867;52.038;29.256;2022-08-19T15:53:09;8;6.6;4.2
74434;PMS7003;62867;52.038;29.256;2022-08-19T15:58:19;6.6;6;3.6
74434;PMS7003;62867;52.038;29.256;2022-08-19T16:03:17;11.2;9.4;6
74434;PMS7003;62867;52.038;29.256;2022-08-19T16:08:19;13.8;12.4;8
74434;PMS7003;62867;52.038;29.256;2022-08-19T16:12:55;11.4;9.6;6
74434;PMS7003;62867;52.038;29.256;2022-08-19T16:18:27;8;6.4;4
74434;PMS7003;62867;52.038;29.256;2022-08-19T16:23:33;7.6;6.8;3.8
74434;PMS7003;62867;52.038;29.256;2022-08-19T16:28:21;7.4;6.4;3.4
74434;PMS7003;62867;52.038;29.256;2022-08-19T16:33:33;6.8;6.2;4
74434;PMS7003;62867;52.038;29.256;2022-08-19T16:38:35;8.4;7.6;4.6
74434;PMS7003;62867;52.038;29.256;2022-08-19T16:42:55;10;6.8;4.8
74434;PMS7003;62867;52.038;29.256;2022-08-19T16:48:07;7;5.8;4
74434;PMS7003;62867;52.038;29.256;2022-08-19T16:53:27;7.4;6.4;4.2
74434;PMS7003;62867;52.038;29.256;2022-08-19T16:58:35;6.8;6;4
74434;PMS7003;62867;52.038;29.256;2022-08-19T17:03:20;8.2;6.4;3.8
74434;PMS7003;62867;52.038;29.256;2022-08-19T17:08:33;7.8;6;3.8
74434;PMS7003;62867;52.038;29.256;2022-08-19T17:13:27;6.4;4.6;3.6
74434;PMS7003;62867;52.038;29.256;2022-08-19T17:18:25;8;5.8;3.8
74434;PMS7003;62867;52.038;29.256;2022-08-19T17:23:13;8.2;6.6;3.6
74434;PMS7003;62867;52.038;29.256;2022-08-19T17:28:22;7.6;6.8;4.4
74434;PMS7003;62867;52.038;29.256;2022-08-19T17:33:06;9.4;6;3.8
74434;PMS7003;62867;52.038;29.256;2022-08-19T17:38:05;6.8;6.4;4
74434;PMS7003;62867;52.038;29.256;2022-08-19T17:43:01;8.5;6.8;4.3
74434;PMS7003;62867;52.038;29.256;2022-08-19T17:48:33;9.4;7.6;4.8
74434;PMS7003;62867;52.038;29.256;2022-08-19T17:53:33;12.2;9;6
74434;PMS7003;62867;52.038;29.256;2022-08-19T17:58:19;9;7.8;5
74434;PMS7003;62867;52.038;29.256;2022-08-19T18:02:56;8;6.6;4.6
74434;PMS7003;62867;52.038;29.256;2022-08-19T18:08:35;7.8;6.8;4.4
74434;PMS7003;62867;52.038;29.256;2022-08-19T18:13:33;9.4;7.6;5.2
74434;PMS7003;62867;52.038;29.256;2022-08-19T18:18:15;10.6;8.4;5.2
74434;PMS7003;62867;52.038;29.256;2022-08-19T18:23:07;9.8;8.8;5.4
74434;PMS7003;62867;52.038;29.256;2022-08-19T18:28:21;9.8;8.6;5.2
74434;PMS7003;62867;52.038;29.256;2022-08-19T18:32:55;10;8;5
74434;PMS7003;62867;52.038;29.256;2022-08-19T18:38:15;9;6.8;4.8
74434;PMS7003;62867;52.038;29.256;2022-08-19T18:43:15;8.5;7.3;4.5
74434;PMS7003;62867;52.038;29.256;2022-08-19T18:48:27;9.8;7.6;5
74434;PMS7003;62867;52.038;29.256;2022-08-19T18:53:27;7.4;7.2;4.6
74434;PMS7003;62867;52.038;29.256;2022-08-19T18:58:28;10.2;7.8;5.2
74434;PMS7003;62867;52.038;29.256;2022-08-19T19:03:33;9.2;7.6;4.2
74434;PMS7003;62867;52.038;29.256;2022-08-19T19:08:25;9.2;7.4;5
74434;PMS7003;62867;52.038;29.256;2022-08-19T19:13:07;9;7.8;4.4
74434;PMS7003;62867;52.038;29.256;2022-08-19T19:17:55;8.2;7;4.8
74434;PMS7003;62867;52.038;29.256;2022-08-19T19:23:09;9.6;8.4;5.4
74434;PMS7003;62867;52.038;29.256;2022-08-19T19:28:33;9.4;8.8;4.8
74434;PMS7003;62867;52.038;29.256;2022-08-19T19:33:17;11;7.6;5.4
74434;PMS7003;62867;52.038;29.256;2022-08-19T19:38:31;9;7.6;4.6
74434;PMS7003;62867;52.038;29.256;2022-08-19T19:43:25;9.4;8;5.2
74434;PMS7003;62867;52.038;29.256;2022-08-19T19:48:27;11;8.5;5.3
74434;PMS7003;62867;52.038;29.256;2022-08-19T19:53:07;11.4;8.4;5.2
74434;PMS7003;62867;52.038;29.256;2022-08-19T19:58:21;9.8;8.4;5.6
74434;PMS7003;62867;52.038;29.256;2022-08-19T20:03:05;10;9;6.4
74434;PMS7003;62867;52.038;29.256;2022-08-19T20:07:55;11;10;6.4
74434;PMS7003;62867;52.038;29.256;2022-08-19T20:13:07;14;10.6;5.8
74434;PMS7003;62867;52.038;29.256;2022-08-19T20:18:33;9.6;8.4;5.2
74434;PMS7003;62867;52.038;29.256;2022-08-19T20:23:33;10.4;8.8;6.2
74434;PMS7003;62867;52.038;29.256;2022-08-19T20:28:19;11.8;9.8;6.4
74434;PMS7003;62867;52.038;29.256;2022-08-19T20:33:17;12.2;9.8;6
74434;PMS7003;62867;52.038;29.256;2022-08-19T20:38:33;9.4;8.8;5.8
74434;PMS7003;62867;52.038;29.256;2022-08-19T20:43:33;10.2;8.8;5.6
74434;PMS7003;62867;52.038;29.256;2022-08-19T20:48:21;11.3;9;6.3
74434;PMS7003;62867;52.038;29.256;2022-08-19T20:53:08;12.8;9.4;6.2
74434;PMS7003;62867;52.038;29.256;2022-08-19T20:58:07;10.8;9.6;6
74434;PMS7003;62867;52.038;29.256;2022-08-19T21:02:55;11.8;9.8;6.2
74434;PMS7003;62867;52.038;29.256;2022-08-19T21:08:15;12.2;9.8;5.6
74434;PMS7003;62867;52.038;29.256;2022-08-19T21:13:13;10.8;9;6.2
74434;PMS7003;62867;52.038;29.256;2022-08-19T21:18:25;12.4;10.8;6.6
74434;PMS7003;62867;52.038;29.256;2022-08-19T21:23:26;10;8.6;5.6
74434;PMS7003;62867;52.038;29.256;2022-08-19T21:28:33;12;10.4;6.6
74434;PMS7003;62867;52.038;29.256;2022-08-19T21:33:31;11;9;5.4
74434;PMS7003;62867;52.038;29.256;2022-08-19T21:38:31;13;9.8;6.6
74434;PMS7003;62867;52.038;29.256;2022-08-19T21:43:34;12.2;10;6.6
74434;PMS7003;62867;52.038;29.256;2022-08-19T21:48:07;13.3;11;6.8
74434;PMS7003;62867;52.038;29.256;2022-08-19T21:52:55;12.2;9.6;6.2
74434;PMS7003;62867;52.038;29.256;2022-08-19T21:58:25;12.2;9.6;6.2
74434;PMS7003;62867;52.038;29.256;2022-08-19T22:03:32;11.6;9.8;6
74434;PMS7003;62867;52.038;29.256;2022-08-19T22:08:13;10.4;8.8;6.2
74434;PMS7003;62867;52.038;29.256;2022-08-19T22:13:24;12;10;6.4
74434;PMS7003;62867;52.038;29.256;2022-08-19T22:18:33;11.8;9.8;6
74434;PMS7003;62867;52.038;29.256;2022-08-19T22:23:15;12.8;10;6.6
74434;PMS7003;62867;52.038;29.256;2022-08-19T22:28:14;11.4;10.2;6.2
74434;PMS7003;62867;52.038;29.256;2022-08-19T22:33:07;11.4;10.4;6.8
74434;PMS7003;62867;52.038;29.256;2022-08-19T22:37:58;12.6;10.6;6.8
74434;PMS7003;62867;52.038;29.256;2022-08-19T22:43:10;12.6;9.6;6.4
74434;PMS7003;62867;52.038;29.256;2022-08-19T22:48:12;11.3;10.3;6.5
74434;PMS7003;62867;52.038;29.256;2022-08-19T22:53:30;12.6;10.4;6.8
74434;PMS7003;62867;52.038;29.256;2022-08-19T22:58:19;12.2;11;6.6
74434;PMS7003;62867;52.038;29.256;2022-08-19T23:03:17;11.8;10;6.6
74434;PMS7003;62867;52.038;29.256;2022-08-19T23:08:05;10.8;10.2;6
74434;PMS7003;62867;52.038;29.256;2022-08-19T23:13:29;14.4;10.4;6.2
74434;PMS7003;62867;52.038;29.256;2022-08-19T23:18:29;14.2;10.8;6.8
74434;PMS7003;62867;52.038;29.256;2022-08-19T23:23:15;14.6;10.8;6.8
74434;PMS7003;62867;52.038;29.256;2022-08-19T23:27:55;12.4;10.6;6.8
74434;PMS7003;62867;52.038;29.256;2022-08-19T23:33:22;13.2;10.4;7.4
74434;PMS7003;62867;52.038;29.256;2022-08-19T23:38:17;11.4;10;7
74434;PMS7003;62867;52.038;29.256;2022-08-19T23:43:11;12.6;10.4;6.4
74434;PMS7003;62867;52.038;29.256;2022-08-19T23:48:14;12.5;10.8;7.5
74434;PMS7003;62867;52.038;29.256;2022-08-19T23:53:26;13;10.4;6.4
74434;PMS7003;62867;52.038;29.256;2022-08-19T23:58:29;12;10.6;7
